createdAt,value
2017-08-31T00:00:47.954Z,5.00
2017-08-31T00:03:16.198Z,4.40
2017-08-31T00:05:43.676Z,5.37
2017-08-31T00:08:11.161Z,4.87
2017-08-31T00:10:38.629Z,4.13
2017-08-31T00:13:06.115Z,3.97
2017-08-31T00:15:33.574Z,4.50
2017-08-31T00:18:01.035Z,4.10
2017-08-31T00:20:28.509Z,4.23
2017-08-31T00:22:55.965Z,3.80
2017-08-31T00:25:23.426Z,3.87
2017-08-31T00:27:50.893Z,3.50
2017-08-31T00:30:18.366Z,3.63
2017-08-31T00:32:45.829Z,3.07
2017-08-31T00:35:13.310Z,3.03
2017-08-31T00:37:40.761Z,2.70
2017-08-31T00:40:08.985Z,2.47
2017-08-31T00:42:36.462Z,1.50
2017-08-31T00:45:03.916Z,1.40
2017-08-31T00:47:31.390Z,1.90
2017-08-31T00:49:58.881Z,2.23
2017-08-31T00:52:26.329Z,1.90
2017-08-31T00:54:53.820Z,2.20
2017-08-31T00:57:21.269Z,1.83
2017-08-31T00:59:48.729Z,1.43
2017-08-31T01:02:16.226Z,2.47
2017-08-31T01:04:43.675Z,2.00
2017-08-31T01:07:11.133Z,1.70
2017-08-31T01:09:38.634Z,1.90
2017-08-31T01:12:06.084Z,1.90
2017-08-31T01:14:33.545Z,1.93
2017-08-31T01:17:01.017Z,1.87
2017-08-31T01:19:28.518Z,1.50
2017-08-31T01:21:55.971Z,2.50
2017-08-31T01:24:23.429Z,1.77
2017-08-31T01:26:50.917Z,2.03
2017-08-31T01:29:18.386Z,1.43
2017-08-31T01:31:46.602Z,1.53
2017-08-31T01:34:14.084Z,1.70
2017-08-31T01:36:41.545Z,1.47
2017-08-31T01:39:08.998Z,1.70
2017-08-31T01:41:36.493Z,1.50
2017-08-31T01:44:03.953Z,1.43
2017-08-31T01:46:32.177Z,1.83
2017-08-31T01:48:59.675Z,1.50
2017-08-31T01:51:27.129Z,1.40
2017-08-31T01:53:54.589Z,1.40
2017-08-31T01:56:22.071Z,1.53
2017-08-31T01:58:49.526Z,1.70
2017-08-31T02:01:16.997Z,1.90
2017-08-31T02:03:44.457Z,1.70
2017-08-31T02:06:11.940Z,1.63
2017-08-31T02:08:39.493Z,1.50
2017-08-31T02:11:06.946Z,1.57
2017-08-31T02:13:34.426Z,1.67
2017-08-31T02:16:01.881Z,2.30
2017-08-31T02:18:29.352Z,1.37
2017-08-31T02:20:56.832Z,1.60
2017-08-31T02:23:24.284Z,1.60
2017-08-31T02:25:51.728Z,1.47
2017-08-31T02:28:19.217Z,1.30
2017-08-31T02:30:46.672Z,1.17
2017-08-31T02:33:14.146Z,1.20
2017-08-31T02:35:41.647Z,1.27
2017-08-31T02:38:09.106Z,1.30
2017-08-31T02:40:36.558Z,1.50
2017-08-31T02:43:04.038Z,1.57
2017-08-31T02:45:31.513Z,1.43
2017-08-31T02:47:58.969Z,1.50
2017-08-31T02:50:26.438Z,1.53
2017-08-31T02:52:53.903Z,1.73
2017-08-31T02:55:21.391Z,1.20
2017-08-31T02:57:48.857Z,1.30
2017-08-31T03:00:16.329Z,1.20
2017-08-31T03:02:43.813Z,1.93
2017-08-31T03:05:11.269Z,1.20
2017-08-31T03:07:38.746Z,1.77
2017-08-31T03:10:06.205Z,1.30
2017-08-31T03:12:33.669Z,1.57
2017-08-31T03:15:01.937Z,1.23
2017-08-31T03:17:29.393Z,1.23
2017-08-31T03:19:56.857Z,1.13
2017-08-31T03:22:24.330Z,1.60
2017-08-31T03:24:51.801Z,1.53
2017-08-31T03:27:19.286Z,1.13
2017-08-31T03:29:46.738Z,1.30
2017-08-31T03:32:14.190Z,1.60
2017-08-31T03:34:41.673Z,1.60
2017-08-31T03:37:09.131Z,1.33
2017-08-31T03:39:36.593Z,1.70
2017-08-31T03:42:04.066Z,1.73
2017-08-31T03:44:31.531Z,2.30
2017-08-31T03:46:59.001Z,1.50
2017-08-31T03:49:26.454Z,1.47
2017-08-31T03:51:53.952Z,1.53
2017-08-31T03:54:21.409Z,2.30
2017-08-31T03:56:48.860Z,1.80
2017-08-31T03:59:16.343Z,1.83
2017-08-31T04:01:43.817Z,1.83
2017-08-31T04:04:11.277Z,2.70
2017-08-31T04:06:38.754Z,1.83
2017-08-31T04:09:06.229Z,2.00
2017-08-31T04:11:33.704Z,1.60
2017-08-31T04:14:01.153Z,2.17
2017-08-31T04:16:29.377Z,2.70
2017-08-31T04:18:56.898Z,2.10
2017-08-31T04:21:24.370Z,2.00
2017-08-31T04:23:51.817Z,1.80
2017-08-31T04:26:19.269Z,2.40
2017-08-31T04:28:46.772Z,2.40
2017-08-31T04:31:14.228Z,2.30
2017-08-31T04:33:41.674Z,2.27
2017-08-31T04:36:09.205Z,2.73
2017-08-31T04:38:36.662Z,2.57
2017-08-31T04:41:04.105Z,3.10
2017-08-31T04:43:31.584Z,2.30
2017-08-31T04:45:59.065Z,3.00
2017-08-31T04:48:26.573Z,3.37
2017-08-31T04:50:54.053Z,4.17
2017-08-31T04:53:21.508Z,3.60
2017-08-31T04:55:48.969Z,3.40
2017-08-31T04:58:16.448Z,3.30
2017-08-31T05:00:43.915Z,2.90
2017-08-31T05:03:11.404Z,2.50
2017-08-31T05:05:38.893Z,2.67
2017-08-31T05:08:06.353Z,2.67
2017-08-31T05:10:33.914Z,2.90
2017-08-31T05:13:01.698Z,3.60
2017-08-31T05:15:29.181Z,4.70
2017-08-31T05:17:56.670Z,4.40
2017-08-31T05:20:24.122Z,4.90
2017-08-31T05:22:52.011Z,6.10
2017-08-31T05:25:19.508Z,6.10
2017-08-31T05:27:46.945Z,6.50
2017-08-31T05:30:14.395Z,5.13
2017-08-31T05:32:41.867Z,5.10
2017-08-31T05:35:09.337Z,3.90
2017-08-31T05:37:36.794Z,2.97
2017-08-31T05:40:04.310Z,2.37
2017-08-31T05:42:31.753Z,2.53
2017-08-31T05:44:59.243Z,2.90
2017-08-31T05:47:26.695Z,2.50
2017-08-31T05:49:54.137Z,2.60
2017-08-31T05:52:21.629Z,1.20
2017-08-31T05:54:49.079Z,2.30
2017-08-31T05:57:16.533Z,2.50
2017-08-31T05:59:44.023Z,2.40
2017-08-31T06:02:12.237Z,2.60
2017-08-31T06:04:39.697Z,2.57
2017-08-31T06:07:07.169Z,2.90
2017-08-31T06:09:34.658Z,3.20
2017-08-31T06:12:02.578Z,3.30
2017-08-31T06:14:30.033Z,2.53
2017-08-31T06:16:57.509Z,2.07
2017-08-31T06:19:24.953Z,2.30
2017-08-31T06:21:52.427Z,1.80
2017-08-31T06:24:19.905Z,2.40
2017-08-31T06:26:47.362Z,1.47
2017-08-31T06:29:14.822Z,1.63
2017-08-31T06:31:42.286Z,1.43
2017-08-31T06:34:09.791Z,1.60
2017-08-31T06:36:37.241Z,1.20
2017-08-31T06:39:04.705Z,0.93
2017-08-31T06:41:32.208Z,1.17
2017-08-31T06:43:59.653Z,1.27
2017-08-31T06:46:27.114Z,1.30
2017-08-31T06:48:54.589Z,1.50
2017-08-31T06:51:22.051Z,1.33
2017-08-31T06:53:49.508Z,1.40
2017-08-31T06:56:16.985Z,1.27
2017-08-31T06:58:44.449Z,1.23
2017-08-31T07:01:11.941Z,0.97
2017-08-31T07:03:39.390Z,1.37
2017-08-31T07:06:06.854Z,1.40
2017-08-31T07:08:35.382Z,1.50
2017-08-31T07:11:02.894Z,1.57
2017-08-31T07:13:30.367Z,1.10
2017-08-31T07:15:57.813Z,1.20
2017-08-31T07:18:25.318Z,1.47
2017-08-31T07:20:52.766Z,1.50
2017-08-31T07:23:20.229Z,1.40
2017-08-31T07:25:47.697Z,2.33
2017-08-31T07:28:15.186Z,1.70
2017-08-31T07:30:42.653Z,1.60
2017-08-31T07:33:10.109Z,1.43
2017-08-31T07:35:37.590Z,1.13
2017-08-31T07:38:05.046Z,1.57
2017-08-31T07:40:32.501Z,1.50
2017-08-31T07:42:59.982Z,1.60
2017-08-31T07:45:27.425Z,2.83
2017-08-31T07:47:54.873Z,1.93
2017-08-31T07:50:22.351Z,2.17
2017-08-31T07:52:49.821Z,1.63
2017-08-31T07:55:17.303Z,1.50
2017-08-31T07:57:44.769Z,1.90
2017-08-31T08:00:12.258Z,1.93
2017-08-31T08:02:39.710Z,2.40
2017-08-31T08:05:07.166Z,2.40
2017-08-31T08:07:34.646Z,2.10
2017-08-31T08:10:02.093Z,1.47
2017-08-31T08:12:29.569Z,1.90
2017-08-31T08:14:57.017Z,2.10
2017-08-31T08:17:24.493Z,2.50
2017-08-31T08:19:51.941Z,2.17
2017-08-31T08:22:19.425Z,1.70
2017-08-31T08:24:46.877Z,2.30
2017-08-31T08:27:14.328Z,2.17
2017-08-31T08:29:41.802Z,1.70
2017-08-31T08:32:09.256Z,1.80
2017-08-31T08:34:36.731Z,1.90
2017-08-31T08:37:04.212Z,2.00
2017-08-31T08:39:31.668Z,2.07
2017-08-31T08:41:59.119Z,2.00
2017-08-31T08:44:26.589Z,2.33
2017-08-31T08:46:54.069Z,2.50
2017-08-31T08:49:21.555Z,1.70
2017-08-31T08:51:49.046Z,1.80
2017-08-31T08:54:16.494Z,1.90
2017-08-31T08:56:43.941Z,1.60
2017-08-31T08:59:11.434Z,1.70
2017-08-31T09:01:38.891Z,2.20
2017-08-31T09:04:06.345Z,2.37
2017-08-31T09:06:33.842Z,1.80
2017-08-31T09:09:01.313Z,2.60
2017-08-31T09:11:28.816Z,3.10
2017-08-31T09:13:56.289Z,2.33
2017-08-31T09:16:23.743Z,2.77
2017-08-31T09:18:51.215Z,2.77
2017-08-31T09:21:18.667Z,2.73
2017-08-31T09:23:46.158Z,2.20
2017-08-31T09:26:13.610Z,2.37
2017-08-31T09:28:41.066Z,3.70
2017-08-31T09:31:08.562Z,3.27
2017-08-31T09:33:36.009Z,2.87
2017-08-31T09:36:03.458Z,2.80
2017-08-31T09:38:30.934Z,3.10
2017-08-31T09:40:58.406Z,3.07
2017-08-31T09:43:25.890Z,2.90
2017-08-31T09:45:53.341Z,4.57
2017-08-31T09:48:20.793Z,3.10
2017-08-31T09:50:48.261Z,3.70
2017-08-31T09:53:15.795Z,3.70
2017-08-31T09:55:43.241Z,2.70
2017-08-31T09:58:10.695Z,3.27
2017-08-31T10:00:38.169Z,3.57
2017-08-31T10:03:05.629Z,2.90
2017-08-31T10:05:33.103Z,3.13
2017-08-31T10:08:00.573Z,2.77
2017-08-31T10:10:28.034Z,2.30
2017-08-31T10:12:55.506Z,2.13
2017-08-31T10:15:22.982Z,1.50
2017-08-31T10:17:50.429Z,2.67
2017-08-31T10:20:17.919Z,2.60
2017-08-31T10:22:45.369Z,2.17
2017-08-31T10:25:12.878Z,2.63
2017-08-31T10:27:40.325Z,1.90
2017-08-31T10:30:07.789Z,2.30
2017-08-31T10:32:35.282Z,2.20
2017-08-31T10:35:02.742Z,2.30
2017-08-31T10:37:30.224Z,1.90
2017-08-31T10:39:57.678Z,1.70
2017-08-31T10:42:25.165Z,2.07
2017-08-31T10:44:52.622Z,1.50
2017-08-31T10:47:20.074Z,2.00
2017-08-31T10:49:47.541Z,2.30
2017-08-31T10:52:15.002Z,1.90
2017-08-31T10:54:42.485Z,1.80
2017-08-31T10:57:09.958Z,2.33
2017-08-31T10:59:37.418Z,2.10
2017-08-31T11:02:04.899Z,1.60
2017-08-31T11:04:32.341Z,2.30
2017-08-31T11:06:59.830Z,2.27
2017-08-31T11:09:27.305Z,2.27
2017-08-31T11:11:54.763Z,2.90
2017-08-31T11:14:22.333Z,2.57
2017-08-31T11:16:49.854Z,2.93
2017-08-31T11:19:17.314Z,2.40
2017-08-31T11:21:45.542Z,3.17
2017-08-31T11:24:13.021Z,3.00
2017-08-31T11:26:40.489Z,2.40
2017-08-31T11:29:08.875Z,3.87
2017-08-31T11:31:36.193Z,3.27
2017-08-31T11:34:03.776Z,2.80
2017-08-31T11:36:31.241Z,2.10
2017-08-31T11:38:58.581Z,2.80
2017-08-31T11:41:26.049Z,2.40
2017-08-31T11:43:53.534Z,1.80
2017-08-31T11:46:21.770Z,2.30
2017-08-31T11:48:49.273Z,2.43
2017-08-31T11:51:16.718Z,2.40
2017-08-31T11:53:44.970Z,2.60
2017-08-31T11:56:12.438Z,2.13
2017-08-31T11:58:39.913Z,2.70
2017-08-31T12:01:08.130Z,2.77
2017-08-31T12:03:35.658Z,2.00
2017-08-31T12:06:03.118Z,1.80
2017-08-31T12:08:30.576Z,1.33
2017-08-31T12:10:58.197Z,1.70
2017-08-31T12:13:26.410Z,1.77
2017-08-31T12:15:53.853Z,1.93
2017-08-31T12:18:21.358Z,1.70
2017-08-31T12:20:48.810Z,1.47
2017-08-31T12:23:16.258Z,1.47
2017-08-31T12:25:43.733Z,1.60
2017-08-31T12:28:11.176Z,2.00
2017-08-31T12:30:38.650Z,2.10
2017-08-31T12:33:06.102Z,2.27
2017-08-31T12:35:33.578Z,2.57
2017-08-31T12:38:01.045Z,2.40
2017-08-31T12:40:28.537Z,2.00
2017-08-31T12:42:56.845Z,2.17
2017-08-31T12:45:24.321Z,2.90
2017-08-31T12:47:51.767Z,3.10
2017-08-31T12:50:19.269Z,2.87
2017-08-31T12:52:46.729Z,2.77
2017-08-31T12:55:14.181Z,2.70
2017-08-31T12:57:41.654Z,2.50
2017-08-31T13:00:09.129Z,3.00
2017-08-31T13:02:37.352Z,3.30
2017-08-31T13:05:04.833Z,2.90
2017-08-31T13:07:32.286Z,2.13
2017-08-31T13:09:59.761Z,2.03
2017-08-31T13:12:27.205Z,2.27
2017-08-31T13:14:54.674Z,2.40
2017-08-31T13:17:22.146Z,3.10
2017-08-31T13:19:49.625Z,3.60
2017-08-31T13:22:17.069Z,2.80
2017-08-31T13:24:44.539Z,3.07
2017-08-31T13:27:12.013Z,4.10
2017-08-31T13:29:39.475Z,2.80
2017-08-31T13:32:06.951Z,2.70
2017-08-31T13:34:34.425Z,2.60
2017-08-31T13:37:01.918Z,3.07
2017-08-31T13:39:30.135Z,2.07
2017-08-31T13:41:57.582Z,2.83
2017-08-31T13:44:25.057Z,2.50
2017-08-31T13:46:52.546Z,2.70
2017-08-31T13:49:20.006Z,2.57
2017-08-31T13:51:47.462Z,3.60
2017-08-31T13:54:14.945Z,3.27
2017-08-31T13:56:42.423Z,3.07
2017-08-31T13:59:09.877Z,3.67
2017-08-31T14:01:37.347Z,3.30
2017-08-31T14:04:04.822Z,3.60
2017-08-31T14:06:32.284Z,3.00
2017-08-31T14:08:59.763Z,3.70
2017-08-31T14:11:27.215Z,3.30
2017-08-31T14:13:54.673Z,4.17
2017-08-31T14:16:22.155Z,2.93
2017-08-31T14:18:49.610Z,3.30
2017-08-31T14:21:17.070Z,3.77
2017-08-31T14:23:44.549Z,2.27
2017-08-31T14:26:11.996Z,3.77
2017-08-31T14:28:39.490Z,3.13
2017-08-31T14:31:06.968Z,3.63
2017-08-31T14:33:34.429Z,4.10
2017-08-31T14:36:01.917Z,3.27
2017-08-31T14:38:29.381Z,3.20
2017-08-31T14:40:56.828Z,3.20
2017-08-31T14:43:25.082Z,3.80
2017-08-31T14:45:52.533Z,3.40
2017-08-31T14:48:20.018Z,3.50
2017-08-31T14:50:47.465Z,3.17
2017-08-31T14:53:14.919Z,3.43
2017-08-31T14:55:42.401Z,3.70
2017-08-31T14:58:09.854Z,3.50
2017-08-31T15:00:37.301Z,3.97
2017-08-31T15:03:05.689Z,4.13
2017-08-31T15:05:33.143Z,4.30
2017-08-31T15:08:00.641Z,3.90
2017-08-31T15:10:28.094Z,4.47
2017-08-31T15:12:55.549Z,4.90
2017-08-31T15:15:23.039Z,4.77
2017-08-31T15:17:50.486Z,4.97
2017-08-31T15:20:17.957Z,4.57
2017-08-31T15:22:45.425Z,5.03
2017-08-31T15:25:12.875Z,4.63
2017-08-31T15:27:40.357Z,4.87
2017-08-31T15:30:07.802Z,4.43
2017-08-31T15:32:35.304Z,4.83
2017-08-31T15:35:02.757Z,5.03
2017-08-31T15:37:30.210Z,5.30
2017-08-31T15:39:57.734Z,5.17
2017-08-31T15:42:25.202Z,5.60
2017-08-31T15:44:52.661Z,4.60
2017-08-31T15:47:20.146Z,5.43
2017-08-31T15:49:47.602Z,5.30
2017-08-31T15:52:15.056Z,6.20
2017-08-31T15:54:42.529Z,5.90
2017-08-31T15:57:10.009Z,5.70
2017-08-31T15:59:37.549Z,5.80
2017-08-31T16:02:05.788Z,6.23
2017-08-31T16:04:33.290Z,4.73
2017-08-31T16:07:00.794Z,5.37
2017-08-31T16:09:28.290Z,4.67
2017-08-31T16:11:55.786Z,5.07
2017-08-31T16:14:23.265Z,5.90
2017-08-31T16:16:50.766Z,4.60
2017-08-31T16:19:18.260Z,4.60
2017-08-31T16:21:45.740Z,5.40
2017-08-31T16:24:13.223Z,5.13
2017-08-31T16:26:40.708Z,4.43
2017-08-31T16:29:08.262Z,4.23
2017-08-31T16:31:36.313Z,4.60
2017-08-31T16:34:04.142Z,4.10
2017-08-31T16:36:31.972Z,4.37
2017-08-31T16:38:59.746Z,4.33
2017-08-31T16:41:27.444Z,5.50
2017-08-31T16:43:54.984Z,4.90
2017-08-31T16:46:23.005Z,4.53
2017-08-31T16:48:51.722Z,4.23
2017-08-31T16:51:19.408Z,4.03
2017-08-31T16:53:47.116Z,4.13
2017-08-31T16:56:14.675Z,4.20
2017-08-31T16:58:42.314Z,4.00
2017-08-31T17:01:10.150Z,4.30
2017-08-31T17:03:38.176Z,4.30
2017-08-31T17:06:05.637Z,4.40
2017-08-31T17:08:33.514Z,4.43
2017-08-31T17:11:01.466Z,5.67
2017-08-31T17:13:28.937Z,4.37
2017-08-31T17:15:56.419Z,3.53
2017-08-31T17:18:24.092Z,4.17
2017-08-31T17:20:51.845Z,4.30
2017-08-31T17:23:19.733Z,3.70
2017-08-31T17:25:47.979Z,3.97
2017-08-31T17:28:15.810Z,3.57
2017-08-31T17:30:43.663Z,4.07
2017-08-31T17:33:11.649Z,3.67
2017-08-31T17:35:39.924Z,3.90
2017-08-31T17:38:08.200Z,4.23
2017-08-31T17:40:36.067Z,3.57
2017-08-31T17:43:03.726Z,3.77
2017-08-31T17:45:31.251Z,4.33
2017-08-31T17:47:58.800Z,4.27
2017-08-31T17:50:26.605Z,3.87
2017-08-31T17:52:54.581Z,3.83
2017-08-31T17:55:22.024Z,4.40
2017-08-31T17:57:49.876Z,3.80
2017-08-31T18:00:17.442Z,4.33
2017-08-31T18:02:44.911Z,3.43
2017-08-31T18:05:12.378Z,4.10
2017-08-31T18:07:39.865Z,4.27
2017-08-31T18:10:07.331Z,3.67
2017-08-31T18:12:34.786Z,4.53
2017-08-31T18:15:02.253Z,3.87
2017-08-31T18:17:29.717Z,4.70
2017-08-31T18:19:57.217Z,4.07
2017-08-31T18:22:24.674Z,4.50
2017-08-31T18:24:52.245Z,5.20
2017-08-31T18:27:19.725Z,4.50
2017-08-31T18:29:47.206Z,4.50
2017-08-31T18:32:14.701Z,4.27
2017-08-31T18:34:42.260Z,4.00
2017-08-31T18:37:09.732Z,3.73
2017-08-31T18:39:37.237Z,5.37
2017-08-31T18:42:04.787Z,4.03
2017-08-31T18:44:32.293Z,4.17
2017-08-31T18:46:59.836Z,4.17
2017-08-31T18:49:27.478Z,4.93
2017-08-31T18:51:54.946Z,5.00
2017-08-31T18:54:22.449Z,5.60
2017-08-31T18:56:49.910Z,6.07
2017-08-31T18:59:17.362Z,5.10
2017-08-31T19:01:45.396Z,5.33
2017-08-31T19:04:12.925Z,5.37
2017-08-31T19:06:40.401Z,5.50
2017-08-31T19:09:07.866Z,5.00
2017-08-31T19:11:35.334Z,4.80
2017-08-31T19:14:02.801Z,5.83
2017-08-31T19:16:30.265Z,5.77
2017-08-31T19:18:57.826Z,6.00
2017-08-31T19:21:25.311Z,5.33
2017-08-31T19:23:52.815Z,5.23
2017-08-31T19:26:20.339Z,6.80
2017-08-31T19:28:47.850Z,5.93
2017-08-31T19:31:15.404Z,5.50
2017-08-31T19:33:42.884Z,5.83
2017-08-31T19:36:10.430Z,5.97
2017-08-31T19:38:38.056Z,8.23
2017-08-31T19:41:05.556Z,7.40
2017-08-31T19:43:33.009Z,6.30
2017-08-31T19:46:00.463Z,6.90
2017-08-31T19:48:28.060Z,6.50
2017-08-31T19:50:55.533Z,6.83
2017-08-31T19:53:23.017Z,7.53
2017-08-31T19:55:50.557Z,10.73
2017-08-31T19:58:18.041Z,10.33
2017-08-31T20:00:45.490Z,9.17
2017-08-31T20:03:13.016Z,8.17
2017-08-31T20:05:40.497Z,7.67
2017-08-31T20:08:07.954Z,7.30
2017-08-31T20:10:35.531Z,6.77
2017-08-31T20:13:02.985Z,6.70
2017-08-31T20:15:30.442Z,8.10
2017-08-31T20:17:57.973Z,6.77
2017-08-31T20:20:25.429Z,8.30
2017-08-31T20:22:52.908Z,6.70
2017-08-31T20:25:20.369Z,8.33
2017-08-31T20:27:47.850Z,8.40
2017-08-31T20:30:15.329Z,7.53
2017-08-31T20:32:42.811Z,8.60
2017-08-31T20:35:10.269Z,8.40
2017-08-31T20:37:37.781Z,7.90
2017-08-31T20:40:05.249Z,8.17
2017-08-31T20:42:33.460Z,8.13
2017-08-31T20:45:00.937Z,7.60
2017-08-31T20:47:28.397Z,10.10
2017-08-31T20:49:55.854Z,13.50
2017-08-31T20:52:23.329Z,10.47
2017-08-31T20:54:50.817Z,10.43
2017-08-31T20:57:18.269Z,10.27
2017-08-31T20:59:45.756Z,10.90
2017-08-31T21:02:13.220Z,10.80
2017-08-31T21:04:40.693Z,8.70
2017-08-31T21:07:08.198Z,9.23
2017-08-31T21:09:35.678Z,11.50
2017-08-31T21:12:03.138Z,12.53
2017-08-31T21:14:31.418Z,10.97
2017-08-31T21:16:58.898Z,12.00
2017-08-31T21:19:26.381Z,12.00
2017-08-31T21:21:53.868Z,10.10
2017-08-31T21:24:21.353Z,11.13
2017-08-31T21:26:48.804Z,9.83
2017-08-31T21:29:17.035Z,10.23
2017-08-31T21:31:44.509Z,10.60
2017-08-31T21:34:11.979Z,10.20
2017-08-31T21:36:39.450Z,10.03
2017-08-31T21:39:06.898Z,9.80
2017-08-31T21:41:34.371Z,8.80
2017-08-31T21:44:01.857Z,9.23
2017-08-31T21:46:29.319Z,9.33
2017-08-31T21:48:56.785Z,9.47
2017-08-31T21:51:24.266Z,8.10
2017-08-31T21:53:51.762Z,11.00
2017-08-31T21:56:19.250Z,9.60
2017-08-31T21:58:46.702Z,9.90
2017-08-31T22:01:14.155Z,9.57
2017-08-31T22:03:41.634Z,9.67
2017-08-31T22:06:09.137Z,8.37
2017-08-31T22:08:36.605Z,8.77
2017-08-31T22:11:04.826Z,9.57
2017-08-31T22:13:32.305Z,10.30
2017-08-31T22:15:59.786Z,9.20
2017-08-31T22:18:27.269Z,9.30
2017-08-31T22:20:55.510Z,9.33
2017-08-31T22:23:23.002Z,9.43
2017-08-31T22:25:50.457Z,10.17
2017-08-31T22:28:17.936Z,9.37
2017-08-31T22:30:45.393Z,9.77
2017-08-31T22:33:12.866Z,9.87
2017-08-31T22:35:40.347Z,9.70
2017-08-31T22:38:08.454Z,9.30
2017-08-31T22:40:35.918Z,10.50
2017-08-31T22:43:03.394Z,9.97
2017-08-31T22:45:30.873Z,10.10
2017-08-31T22:47:58.385Z,9.80
2017-08-31T22:50:25.842Z,10.67
2017-08-31T22:52:53.306Z,9.97
2017-08-31T22:55:23.638Z,10.83
2017-08-31T22:58:02.929Z,10.67
2017-08-31T23:00:30.488Z,9.70
2017-08-31T23:02:57.946Z,9.60
2017-08-31T23:05:25.406Z,10.10
2017-08-31T23:07:52.902Z,10.30
2017-08-31T23:10:20.595Z,10.50
2017-08-31T23:12:48.041Z,11.23
2017-08-31T23:15:15.530Z,10.23
2017-08-31T23:17:42.976Z,10.17
2017-08-31T23:20:10.442Z,9.87
2017-08-31T23:22:37.913Z,9.57
2017-08-31T23:25:05.439Z,10.83
2017-08-31T23:27:32.905Z,11.07
2017-08-31T23:30:00.370Z,9.63
2017-08-31T23:32:27.858Z,10.10
2017-08-31T23:34:55.338Z,9.97
2017-08-31T23:37:22.813Z,10.77
2017-08-31T23:39:50.269Z,11.60
2017-08-31T23:42:17.758Z,10.37
2017-08-31T23:44:45.225Z,10.03
2017-08-31T23:47:12.705Z,9.97
2017-08-31T23:49:40.161Z,8.90
2017-08-31T23:52:07.638Z,9.30
2017-08-31T23:54:35.097Z,9.30
2017-08-31T23:57:02.577Z,10.20
2017-08-31T23:59:30.070Z,9.97
